createdAt,value
2022-12-18T00:04:08.819Z,31.92
2022-12-18T00:10:36.018Z,31.97
2022-12-18T00:17:02.595Z,31.86
2022-12-18T00:23:26.791Z,32.02
2022-12-18T00:29:54.549Z,32.09
2022-12-18T00:36:27.568Z,32.06
2022-12-18T00:42:59.628Z,32.26
2022-12-18T00:49:24.290Z,32.07
2022-12-18T00:55:52.685Z,32.21
2022-12-18T01:02:21.989Z,32.07
2022-12-18T01:08:49.992Z,32.14
2022-12-18T01:15:25.923Z,32.05
2022-12-18T01:21:52.641Z,32.04
2022-12-18T01:28:29.516Z,31.92
2022-12-18T01:35:03.571Z,31.92
2022-12-18T01:41:48.903Z,31.94
2022-12-18T01:48:28.802Z,31.76
2022-12-18T01:55:07.821Z,31.74
2022-12-18T02:01:51.002Z,31.62
2022-12-18T02:08:40.651Z,31.83
2022-12-18T02:15:49.271Z,31.74
2022-12-18T02:22:51.424Z,31.69
2022-12-18T02:29:58.714Z,31.7
2022-12-18T02:36:39.841Z,31.76
2022-12-18T02:43:14.794Z,31.76
2022-12-18T02:50:01.962Z,31.74
2022-12-18T02:57:14.617Z,31.84
2022-12-18T03:04:30.752Z,31.9
2022-12-18T03:11:43.787Z,31.74
2022-12-18T03:18:43.974Z,31.8
2022-12-18T03:25:38.990Z,31.59
2022-12-18T03:32:30.927Z,31.44
2022-12-18T03:39:54.245Z,32.07
2022-12-18T03:47:58.037Z,32.61
2022-12-18T03:56:09.469Z,32.65
2022-12-18T04:04:01.184Z,32.83
2022-12-18T04:11:34.163Z,32.61
2022-12-18T04:19:22.612Z,32.6
2022-12-18T04:26:59.490Z,32.43
2022-12-18T04:34:29.489Z,32.61
2022-12-18T04:42:02.820Z,32.9
2022-12-18T04:49:29.205Z,32.62
2022-12-18T04:56:50.812Z,33.04
2022-12-18T05:04:14.173Z,33.01
2022-12-18T05:11:46.708Z,33.1
2022-12-18T05:18:49.009Z,31.44
2022-12-18T05:25:10.872Z,30.66
2022-12-18T05:31:48.853Z,29.98
2022-12-18T05:38:12.174Z,29.71
2022-12-18T05:44:48.193Z,29.9
2022-12-18T05:51:20.140Z,29.83
2022-12-18T05:57:44.789Z,29.4
2022-12-18T06:04:21.581Z,29.34
2022-12-18T06:10:48.320Z,28.94
2022-12-18T06:17:16.115Z,29.41
2022-12-18T06:23:52.116Z,29.92
2022-12-18T06:30:15.845Z,29.98
2022-12-18T06:36:45.234Z,30.01
2022-12-18T06:43:14.920Z,29.94
2022-12-18T06:49:38.084Z,29.71
2022-12-18T06:56:11.417Z,29.67
2022-12-18T07:02:42.322Z,29.92
2022-12-18T07:09:14.896Z,30.09
2022-12-18T07:15:41.600Z,29.93
2022-12-18T07:22:10.165Z,29.91
2022-12-18T07:28:42.507Z,30.32
2022-12-18T07:35:24.898Z,30.54
2022-12-18T07:41:50.204Z,30.36
2022-12-18T07:48:16.150Z,30.62
2022-12-18T07:54:47.034Z,30.58
2022-12-18T08:01:10.270Z,30.51
2022-12-18T08:07:35.679Z,30.48
2022-12-18T08:14:11.882Z,30.97
2022-12-18T08:20:35.044Z,31.01
2022-12-18T08:27:32.488Z,30.37
2022-12-18T08:33:52.157Z,29.95
2022-12-18T08:40:27.249Z,30
2022-12-18T08:46:58.211Z,30.14
2022-12-18T08:53:35.836Z,30.1
2022-12-18T09:00:14.399Z,30.77
2022-12-18T09:06:53.261Z,30.71
2022-12-18T09:13:17.629Z,31.01
2022-12-18T09:19:49.641Z,30.81
2022-12-18T09:26:15.308Z,30.72
2022-12-18T09:32:47.941Z,31.05
2022-12-18T09:39:24.695Z,31.36
2022-12-18T09:46:13.127Z,31.48
2022-12-18T09:53:15.786Z,31.26
2022-12-18T10:00:04.967Z,31.45
2022-12-18T10:07:09.362Z,31.41
2022-12-18T10:14:24.131Z,31
2022-12-18T10:21:34.543Z,31.18
2022-12-18T10:28:34.260Z,31.4
2022-12-18T10:35:11.953Z,31.6
2022-12-18T10:42:04.535Z,31.48
2022-12-18T10:49:02.265Z,31.49
2022-12-18T10:55:58.679Z,31.43
2022-12-18T11:02:55.934Z,31.5
2022-12-18T11:09:49.201Z,31.15
2022-12-18T11:17:24.096Z,31.39
2022-12-18T11:23:52.783Z,31.49
2022-12-18T11:30:42.280Z,31.56
2022-12-18T11:37:37.205Z,31.78
2022-12-18T11:44:39.994Z,31.54
2022-12-18T11:51:52.924Z,31.2
2022-12-18T11:58:55.171Z,31.13
2022-12-18T12:05:46.208Z,31.41
2022-12-18T12:12:49.591Z,31.4
2022-12-18T12:19:33.259Z,31.65
2022-12-18T12:26:48.794Z,31.72
2022-12-18T12:33:29.969Z,31.77
2022-12-18T12:40:58.707Z,31.4
2022-12-18T12:47:50.795Z,31.33
2022-12-18T12:54:54.307Z,30.75
2022-12-18T13:01:40.360Z,31.56
2022-12-18T13:08:48.118Z,31.35
2022-12-18T13:15:44.106Z,31.53
2022-12-18T13:22:40.852Z,31.66
2022-12-18T13:29:24.111Z,31.53
2022-12-18T13:36:26.311Z,31.4
2022-12-18T13:43:21.564Z,31.14
2022-12-18T13:50:13.011Z,30.74
2022-12-18T13:57:11.354Z,30.96
2022-12-18T14:04:12.577Z,31.51
2022-12-18T14:10:51.767Z,31.53
2022-12-18T14:17:31.409Z,31.57
2022-12-18T14:24:20.070Z,31.7
2022-12-18T14:31:08.210Z,31.55
2022-12-18T14:37:57.036Z,31.37
2022-12-18T14:44:50.515Z,31.17
2022-12-18T14:51:38.541Z,31.09
2022-12-18T14:58:31.121Z,30.77
2022-12-18T15:05:13.262Z,30.84
2022-12-18T15:12:13.047Z,30.96
2022-12-18T15:19:35.165Z,31.5
2022-12-18T15:27:04.148Z,31.76
2022-12-18T15:34:37.382Z,31.34
2022-12-18T15:42:13.720Z,31.28
2022-12-18T15:49:52.394Z,31.7
2022-12-18T15:57:32.695Z,31.5
2022-12-18T16:05:14.879Z,31.62
2022-12-18T16:12:28.745Z,31.91
2022-12-18T16:19:55.429Z,32.43
2022-12-18T16:27:29.719Z,32.67
2022-12-18T16:34:57.115Z,32.58
2022-12-18T16:42:41.835Z,32.79
2022-12-18T16:50:02.162Z,32.97
2022-12-18T16:57:06.035Z,32.69
2022-12-18T17:04:22.643Z,32.56
2022-12-18T17:11:37.608Z,32.42
2022-12-18T17:18:57.701Z,32.28
2022-12-18T17:26:23.169Z,32.34
2022-12-18T17:33:48.425Z,32.53
2022-12-18T17:41:13.969Z,32.52
2022-12-18T17:48:46.779Z,32.37
2022-12-18T17:56:08.346Z,32.26
2022-12-18T18:03:19.921Z,32.84
2022-12-18T18:10:04.186Z,32.49
2022-12-18T18:17:17.597Z,32.7
2022-12-18T18:24:15.098Z,32.64
2022-12-18T18:31:24.746Z,32.54
2022-12-18T18:38:48.958Z,32.61
2022-12-18T18:46:01.425Z,32.46
2022-12-18T18:53:24.608Z,32.78
2022-12-18T19:00:16.709Z,32.67
2022-12-18T19:07:10.931Z,32.34
2022-12-18T19:14:07.840Z,32.31
2022-12-18T19:21:07.121Z,32.42
2022-12-18T19:27:50.580Z,32.21
2022-12-18T19:34:40.111Z,32.21
2022-12-18T19:41:45.986Z,32.49
2022-12-18T19:48:42.371Z,32.43
2022-12-18T19:55:43.339Z,32.69
2022-12-18T20:02:36.848Z,32.48
2022-12-18T20:09:41.374Z,32.32
2022-12-18T20:16:34.314Z,32.33
2022-12-18T20:23:39.361Z,32.28
2022-12-18T20:30:59.683Z,32.47
2022-12-18T20:38:27.410Z,32.72
2022-12-18T20:45:59.609Z,32.6
2022-12-18T20:53:30.402Z,32.59
2022-12-18T21:00:41.818Z,32.56
2022-12-18T21:08:11.975Z,32.59
2022-12-18T21:15:54.377Z,32.53
2022-12-18T21:23:23.417Z,32.66
2022-12-18T21:30:59.048Z,32.49
2022-12-18T21:38:27.276Z,32.57
2022-12-18T21:45:52.453Z,32.54
2022-12-18T21:53:20.528Z,32.74
2022-12-18T22:00:51.202Z,32.73
2022-12-18T22:08:25.475Z,32.74
2022-12-18T22:15:55.128Z,32.64
2022-12-18T22:23:43.301Z,32.98
2022-12-18T22:31:17.570Z,32.7
2022-12-18T22:38:56.767Z,32.79
2022-12-18T22:46:25.640Z,32.85
2022-12-18T22:54:03.552Z,32.66
2022-12-18T23:01:57.984Z,32.77
2022-12-18T23:09:17.152Z,32.74
2022-12-18T23:17:00.761Z,32.89
2022-12-18T23:24:17.699Z,32.92
2022-12-18T23:31:56.012Z,32.85
2022-12-18T23:39:30.432Z,32.66
2022-12-18T23:47:14.130Z,32.74
2022-12-18T23:54:47.548Z,32.89
